createdAt,value
2023-02-27T00:00:53.568Z,2.42
2023-02-27T00:03:58.048Z,1.08
2023-02-27T00:07:02.504Z,10.20
2023-02-27T00:10:08.408Z,4.95
2023-02-27T00:13:12.737Z,4.00
2023-02-27T00:16:17.233Z,10.52
2023-02-27T00:19:21.798Z,2.73
2023-02-27T00:22:27.465Z,3.70
2023-02-27T00:25:33.336Z,6.20
2023-02-27T00:28:38.376Z,3.15
2023-02-27T00:31:42.992Z,4.75
2023-02-27T00:34:47.576Z,3.30
2023-02-27T00:37:51.743Z,2.53
2023-02-27T00:40:56.132Z,12.60
2023-02-27T00:44:00.663Z,6.00
2023-02-27T00:47:05.441Z,3.85
2023-02-27T00:50:11.220Z,2.25
2023-02-27T00:53:15.651Z,5.15
2023-02-27T00:56:20.096Z,8.23
2023-02-27T00:59:24.579Z,6.03
2023-02-27T01:02:30.681Z,3.20
2023-02-27T01:05:35.230Z,10.13
2023-02-27T01:08:40.135Z,5.40
2023-02-27T01:11:44.105Z,4.47
2023-02-27T01:14:48.226Z,4.95
2023-02-27T01:17:55.198Z,2.20
2023-02-27T01:20:59.668Z,6.03
2023-02-27T01:24:04.468Z,5.15
2023-02-27T01:27:08.888Z,1.60
2023-02-27T01:30:16.163Z,5.55
2023-02-27T01:33:22.209Z,4.55
2023-02-27T01:36:26.558Z,3.63
2023-02-27T01:39:32.848Z,3.22
2023-02-27T01:42:37.711Z,2.60
2023-02-27T01:45:44.426Z,3.27
2023-02-27T01:48:49.016Z,5.55
2023-02-27T01:52:06.588Z,8.00
2023-02-27T01:55:13.251Z,3.25
2023-02-27T01:58:17.986Z,5.05
2023-02-27T02:01:22.998Z,4.97
2023-02-27T02:04:35.683Z,7.45
2023-02-27T02:07:41.833Z,2.80
2023-02-27T02:10:47.994Z,2.05
2023-02-27T02:13:57.711Z,5.95
2023-02-27T02:17:40.232Z,4.38
2023-02-27T02:21:19.866Z,4.93
2023-02-27T02:24:46.317Z,4.13
2023-02-27T02:28:09.967Z,3.13
2023-02-27T02:35:17.238Z,7.78
2023-02-27T02:38:55.411Z,4.53
2023-02-27T02:42:23.593Z,4.95
2023-02-27T02:45:39.104Z,3.88
2023-02-27T02:48:46.261Z,2.58
2023-02-27T02:52:10.832Z,5.82
2023-02-27T02:55:32.293Z,4.70
2023-02-27T02:58:49.143Z,10.13
2023-02-27T03:02:02.561Z,8.63
2023-02-27T03:05:18.842Z,6.68
2023-02-27T03:08:28.605Z,7.03
2023-02-27T03:11:38.025Z,5.40
2023-02-27T03:14:51.906Z,4.63
2023-02-27T03:18:08.306Z,1.80
2023-02-27T03:21:19.355Z,3.40
2023-02-27T03:24:30.132Z,2.40
2023-02-27T03:27:40.646Z,2.50
2023-02-27T03:30:56.177Z,4.78
2023-02-27T03:34:17.749Z,5.03
2023-02-27T03:37:49.286Z,4.05
2023-02-27T03:41:13.437Z,5.68
2023-02-27T03:44:28.825Z,8.50
2023-02-27T03:47:34.419Z,5.88
2023-02-27T03:50:39.203Z,5.50
2023-02-27T03:53:49.724Z,3.35
2023-02-27T03:56:57.552Z,3.38
2023-02-27T04:00:05.407Z,3.65
2023-02-27T04:03:17.989Z,3.05
2023-02-27T04:06:40.665Z,1.98
2023-02-27T04:10:14.915Z,8.52
2023-02-27T04:13:38.155Z,4.30
2023-02-27T04:17:00.606Z,4.55
2023-02-27T04:20:20.779Z,3.42
2023-02-27T04:23:35.680Z,6.78
2023-02-27T04:27:09.707Z,2.97
2023-02-27T04:30:36.809Z,3.78
2023-02-27T04:33:54.766Z,4.30
2023-02-27T04:37:17.076Z,4.00
2023-02-27T04:40:28.270Z,4.60
2023-02-27T04:43:34.694Z,3.85
2023-02-27T04:46:42.952Z,6.05
2023-02-27T04:49:53.179Z,2.00
2023-02-27T04:53:08.979Z,5.20
2023-02-27T04:59:25.930Z,5.85
2023-02-27T05:02:36.750Z,4.35
2023-02-27T05:05:43.786Z,7.30
2023-02-27T05:09:16.447Z,5.63
2023-02-27T05:12:34.022Z,6.78
2023-02-27T05:15:48.615Z,3.63
2023-02-27T05:18:54.361Z,6.75
2023-02-27T05:25:15.282Z,4.97
2023-02-27T05:28:26.253Z,9.87
2023-02-27T05:31:43.756Z,5.38
2023-02-27T05:35:03.123Z,5.18
2023-02-27T05:38:20.328Z,6.15
2023-02-27T05:41:50.580Z,8.65
2023-02-27T05:45:11.032Z,2.10
2023-02-27T05:48:20.752Z,4.32
2023-02-27T05:51:29.151Z,1.80
2023-02-27T05:54:39.946Z,5.25
2023-02-27T05:57:53.929Z,10.70
2023-02-27T06:01:03.654Z,4.53
2023-02-27T06:04:07.895Z,6.03
2023-02-27T06:07:14.757Z,8.25
2023-02-27T06:10:20.611Z,4.68
2023-02-27T06:13:26.247Z,8.32
2023-02-27T06:16:30.821Z,4.45
2023-02-27T06:19:35.418Z,3.75
2023-02-27T06:22:39.840Z,6.88
2023-02-27T06:25:44.156Z,6.28
2023-02-27T06:28:48.421Z,4.55
2023-02-27T06:31:52.904Z,5.03
2023-02-27T06:34:57.160Z,4.53
2023-02-27T06:38:01.472Z,11.85
2023-02-27T06:41:05.786Z,3.83
2023-02-27T06:44:10.020Z,10.30
2023-02-27T06:47:14.620Z,20.92
2023-02-27T06:50:19.129Z,9.27
2023-02-27T06:53:24.953Z,10.23
2023-02-27T06:56:29.245Z,6.53
2023-02-27T06:59:33.760Z,11.60
2023-02-27T07:02:38.813Z,5.35
2023-02-27T07:05:43.682Z,13.48
2023-02-27T07:08:53.987Z,10.73
2023-02-27T07:12:10.809Z,9.07
2023-02-27T07:15:15.432Z,10.90
2023-02-27T07:18:19.940Z,6.57
2023-02-27T07:21:24.812Z,10.93
2023-02-27T07:24:28.958Z,10.20
2023-02-27T07:27:33.665Z,14.93
2023-02-27T07:30:37.745Z,6.97
2023-02-27T07:33:42.163Z,11.80
2023-02-27T07:36:46.498Z,8.40
2023-02-27T07:39:51.152Z,5.63
2023-02-27T07:42:55.705Z,10.00
2023-02-27T07:46:00.207Z,10.23
2023-02-27T07:49:04.460Z,6.95
2023-02-27T07:52:09.054Z,8.80
2023-02-27T07:55:14.284Z,18.30
2023-02-27T07:58:18.981Z,17.17
2023-02-27T08:01:23.603Z,17.60
2023-02-27T08:04:28.074Z,15.85
2023-02-27T08:07:32.793Z,8.90
2023-02-27T08:10:37.725Z,19.40
2023-02-27T08:13:59.615Z,10.30
2023-02-27T08:17:05.271Z,12.13
2023-02-27T08:20:11.741Z,9.25
2023-02-27T08:23:15.943Z,12.48
2023-02-27T08:26:21.254Z,14.23
2023-02-27T08:29:26.975Z,15.80
2023-02-27T08:32:31.355Z,11.30
2023-02-27T08:35:35.948Z,17.25
2023-02-27T08:38:40.546Z,8.07
2023-02-27T08:41:45.214Z,11.13
2023-02-27T08:44:50.510Z,11.32
2023-02-27T08:47:54.872Z,10.88
2023-02-27T08:50:59.196Z,9.03
2023-02-27T08:54:03.976Z,15.20
2023-02-27T08:57:08.469Z,13.75
2023-02-27T09:00:14.707Z,11.98
2023-02-27T09:03:18.924Z,7.95
2023-02-27T09:06:25.908Z,2.78
2023-02-27T09:09:30.816Z,8.60
2023-02-27T09:12:35.199Z,12.63
2023-02-27T09:15:39.978Z,4.78
2023-02-27T09:18:44.563Z,3.70
2023-02-27T09:21:49.152Z,8.48
2023-02-27T09:24:53.467Z,6.37
2023-02-27T09:27:58.569Z,10.70
2023-02-27T09:31:05.852Z,10.93
2023-02-27T09:34:10.293Z,8.32
2023-02-27T09:37:15.925Z,6.20
2023-02-27T09:40:30.202Z,11.43
2023-02-27T09:43:47.610Z,3.88
2023-02-27T09:46:53.505Z,7.25
2023-02-27T09:50:03.824Z,7.55
2023-02-27T09:53:42.281Z,9.20
2023-02-27T09:56:58.595Z,4.88
2023-02-27T10:00:11.812Z,5.82
2023-02-27T10:03:54.879Z,5.90
2023-02-27T10:07:17.495Z,6.60
2023-02-27T10:11:03.827Z,8.63
2023-02-27T10:14:26.306Z,6.90
2023-02-27T10:17:41.661Z,6.63
2023-02-27T10:20:56.383Z,4.50
2023-02-27T10:24:31.074Z,7.47
2023-02-27T10:27:35.444Z,7.35
2023-02-27T10:30:41.523Z,8.35
2023-02-27T10:33:48.339Z,4.55
2023-02-27T10:36:53.563Z,5.35
2023-02-27T10:40:01.206Z,10.02
2023-02-27T10:43:07.123Z,7.47
2023-02-27T10:46:23.184Z,9.45
2023-02-27T10:49:32.082Z,10.85
2023-02-27T10:52:49.527Z,8.88
2023-02-27T10:56:06.947Z,5.53
2023-02-27T10:59:20.800Z,9.77
2023-02-27T11:02:43.604Z,10.43
2023-02-27T11:06:14.266Z,4.97
2023-02-27T11:09:21.856Z,4.88
2023-02-27T11:12:32.641Z,6.97
2023-02-27T11:15:38.614Z,12.65
2023-02-27T11:18:48.276Z,5.05
2023-02-27T11:22:07.234Z,8.10
2023-02-27T11:25:22.383Z,7.75
2023-02-27T11:28:30.157Z,8.45
2023-02-27T11:31:36.691Z,6.28
2023-02-27T11:34:52.218Z,5.68
2023-02-27T11:38:02.124Z,8.25
2023-02-27T11:41:08.679Z,7.47
2023-02-27T11:44:17.846Z,7.18
2023-02-27T11:47:35.742Z,9.65
2023-02-27T11:51:13.182Z,6.38
2023-02-27T11:54:27.149Z,14.73
2023-02-27T11:57:38.042Z,9.05
2023-02-27T12:00:51.222Z,8.93
2023-02-27T12:04:26.958Z,5.70
2023-02-27T12:08:05.580Z,13.32
2023-02-27T12:11:21.604Z,6.63
2023-02-27T12:14:28.193Z,8.23
2023-02-27T12:17:45.759Z,14.85
2023-02-27T12:21:13.516Z,9.23
2023-02-27T12:24:52.832Z,7.00
2023-02-27T12:28:26.720Z,6.38
2023-02-27T12:31:36.852Z,9.38
2023-02-27T12:34:53.343Z,11.85
2023-02-27T12:37:58.313Z,9.88
2023-02-27T12:41:37.325Z,13.90
2023-02-27T12:45:17.669Z,7.78
2023-02-27T12:48:23.169Z,11.98
2023-02-27T12:51:46.188Z,10.50
2023-02-27T12:55:03.336Z,6.28
2023-02-27T12:58:24.179Z,8.20
2023-02-27T13:01:37.923Z,7.70
2023-02-27T13:04:48.593Z,7.28
2023-02-27T13:08:25.235Z,6.68
2023-02-27T13:14:50.208Z,9.00
2023-02-27T13:18:07.822Z,8.13
2023-02-27T13:21:19.490Z,7.63
2023-02-27T13:24:29.154Z,9.75
2023-02-27T13:27:38.756Z,11.00
2023-02-27T13:30:47.747Z,7.65
2023-02-27T13:34:02.565Z,16.05
2023-02-27T13:37:08.829Z,4.95
2023-02-27T13:40:37.835Z,12.38
2023-02-27T13:43:51.817Z,5.78
2023-02-27T13:47:28.911Z,19.48
2023-02-27T13:50:33.603Z,10.05
2023-02-27T13:53:38.536Z,8.70
2023-02-27T13:56:59.766Z,6.25
2023-02-27T14:00:19.609Z,6.30
2023-02-27T14:03:29.748Z,9.20
2023-02-27T14:06:45.219Z,4.63
2023-02-27T14:09:59.993Z,17.23
2023-02-27T14:13:05.294Z,3.20
2023-02-27T14:16:11.411Z,11.40
2023-02-27T14:19:16.308Z,14.45
2023-02-27T14:22:29.687Z,7.40
2023-02-27T14:25:52.269Z,9.68
2023-02-27T14:28:58.087Z,12.27
2023-02-27T14:32:09.153Z,11.38
2023-02-27T14:35:15.983Z,7.55
2023-02-27T14:38:21.316Z,7.60
2023-02-27T14:41:28.905Z,8.35
2023-02-27T14:44:43.756Z,5.07
2023-02-27T14:47:48.635Z,6.30
2023-02-27T14:50:54.509Z,6.40
2023-02-27T14:54:15.423Z,5.93
2023-02-27T14:57:24.210Z,8.00
2023-02-27T15:00:53.570Z,10.02
2023-02-27T15:03:58.901Z,11.25
2023-02-27T15:07:04.111Z,11.88
2023-02-27T15:10:10.627Z,8.80
2023-02-27T15:13:31.942Z,8.90
2023-02-27T15:16:40.582Z,7.80
2023-02-27T15:19:56.930Z,14.85
2023-02-27T15:23:19.920Z,9.88
2023-02-27T15:26:25.342Z,8.32
2023-02-27T15:29:43.262Z,3.70
2023-02-27T15:32:47.857Z,9.93
2023-02-27T15:35:52.395Z,9.48
2023-02-27T15:39:28.434Z,5.30
2023-02-27T15:42:37.358Z,11.10
2023-02-27T15:45:42.630Z,13.48
2023-02-27T15:48:47.634Z,9.98
2023-02-27T15:52:19.688Z,14.93
2023-02-27T15:55:29.190Z,11.68
2023-02-27T15:58:50.794Z,14.30
2023-02-27T16:01:55.615Z,8.35
2023-02-27T16:05:00.431Z,11.23
2023-02-27T16:08:06.802Z,7.15
2023-02-27T16:11:21.953Z,9.00
2023-02-27T16:17:55.549Z,13.35
2023-02-27T16:21:21.513Z,5.35
2023-02-27T16:24:31.827Z,9.80
2023-02-27T16:27:36.321Z,4.63
2023-02-27T16:30:42.173Z,5.60
2023-02-27T16:33:46.989Z,4.72
2023-02-27T16:36:55.082Z,15.27
2023-02-27T16:39:59.331Z,6.72
2023-02-27T16:43:03.839Z,11.70
2023-02-27T16:46:08.380Z,4.32
2023-02-27T16:49:27.914Z,12.90
2023-02-27T16:52:32.475Z,3.10
2023-02-27T16:55:41.704Z,8.17
2023-02-27T16:58:46.554Z,7.95
2023-02-27T17:01:50.952Z,5.50
2023-02-27T17:04:55.578Z,11.70
2023-02-27T17:08:00.465Z,11.55
2023-02-27T17:14:09.925Z,12.90
2023-02-27T17:17:14.183Z,12.70
2023-02-27T17:20:18.844Z,6.35
2023-02-27T17:23:23.745Z,9.68
2023-02-27T17:26:28.988Z,9.13
2023-02-27T17:29:33.768Z,7.75
2023-02-27T17:32:38.365Z,18.70
2023-02-27T17:35:42.823Z,11.25
2023-02-27T17:38:48.810Z,8.32
2023-02-27T17:41:54.322Z,9.93
2023-02-27T17:44:58.701Z,10.60
2023-02-27T17:48:03.276Z,9.13
2023-02-27T17:51:10.381Z,8.52
2023-02-27T17:54:15.048Z,15.05
2023-02-27T17:57:19.239Z,13.05
2023-02-27T18:00:23.724Z,9.23
2023-02-27T18:03:27.960Z,9.57
2023-02-27T18:06:32.285Z,9.70
2023-02-27T18:09:36.712Z,9.03
2023-02-27T18:12:41.292Z,10.33
2023-02-27T18:15:45.799Z,24.63
2023-02-27T18:18:50.605Z,14.77
2023-02-27T18:21:55.017Z,19.88
2023-02-27T18:24:59.157Z,26.10
2023-02-27T18:28:04.189Z,145.85
2023-02-27T18:31:18.572Z,84.32
2023-02-27T18:34:23.613Z,101.05
2023-02-27T18:37:27.947Z,94.35
2023-02-27T18:40:32.559Z,61.73
2023-02-27T18:43:38.792Z,42.42
2023-02-27T18:46:43.775Z,23.83
2023-02-27T18:49:48.137Z,30.35
2023-02-27T18:52:54.208Z,16.08
2023-02-27T18:56:03.323Z,12.07
2023-02-27T18:59:08.028Z,15.57
2023-02-27T19:02:14.900Z,25.20
2023-02-27T19:05:19.676Z,37.85
2023-02-27T19:08:30.393Z,59.38
2023-02-27T19:11:35.598Z,53.33
2023-02-27T19:14:40.629Z,45.45
2023-02-27T19:17:45.124Z,52.97
2023-02-27T19:20:49.646Z,35.33
2023-02-27T19:23:54.345Z,28.13
2023-02-27T19:26:59.058Z,24.20
2023-02-27T19:30:03.625Z,22.40
2023-02-27T19:33:08.504Z,18.42
2023-02-27T19:36:15.753Z,14.93
2023-02-27T19:39:20.009Z,14.43
2023-02-27T19:42:25.857Z,12.95
2023-02-27T19:45:30.154Z,21.75
2023-02-27T19:48:34.936Z,20.20
2023-02-27T19:51:40.957Z,12.75
2023-02-27T19:54:45.360Z,16.95
2023-02-27T19:57:49.868Z,15.38
2023-02-27T20:00:54.670Z,12.27
2023-02-27T20:03:59.944Z,11.27
2023-02-27T20:07:04.155Z,17.60
2023-02-27T20:10:09.573Z,11.65
2023-02-27T20:13:13.962Z,16.15
2023-02-27T20:16:22.212Z,12.88
2023-02-27T20:19:26.754Z,13.88
2023-02-27T20:22:32.706Z,15.77
2023-02-27T20:25:37.150Z,21.60
2023-02-27T20:28:41.481Z,17.97
2023-02-27T20:31:48.177Z,11.93
2023-02-27T20:34:55.679Z,13.95
2023-02-27T20:38:00.120Z,16.58
2023-02-27T20:41:05.436Z,15.07
2023-02-27T20:44:11.337Z,11.50
2023-02-27T20:47:16.385Z,17.30
2023-02-27T20:50:21.032Z,22.67
2023-02-27T20:53:26.292Z,15.87
2023-02-27T20:59:36.090Z,19.25
2023-02-27T21:02:40.655Z,18.50
2023-02-27T21:05:49.326Z,9.60
2023-02-27T21:08:56.296Z,18.00
2023-02-27T21:12:01.027Z,13.05
2023-02-27T21:15:06.027Z,19.45
2023-02-27T21:18:11.684Z,16.95
2023-02-27T21:24:21.539Z,23.90
2023-02-27T21:27:25.973Z,16.85
2023-02-27T21:30:30.917Z,23.35
2023-02-27T21:33:35.639Z,18.30
2023-02-27T21:36:42.446Z,17.50
2023-02-27T21:39:52.289Z,14.18
2023-02-27T21:42:56.701Z,16.52
2023-02-27T21:46:20.857Z,16.27
2023-02-27T21:49:27.770Z,13.80
2023-02-27T21:52:33.696Z,10.52
2023-02-27T21:55:38.205Z,17.38
2023-02-27T21:58:42.393Z,20.67
2023-02-27T22:01:48.207Z,14.70
2023-02-27T22:04:53.141Z,18.67
2023-02-27T22:07:57.871Z,22.48
2023-02-27T22:11:03.559Z,18.40
2023-02-27T22:14:09.722Z,12.38
2023-02-27T22:17:14.035Z,18.88
2023-02-27T22:20:18.646Z,11.43
2023-02-27T22:23:23.279Z,21.50
2023-02-27T22:26:29.118Z,21.83
2023-02-27T22:29:33.666Z,15.50
2023-02-27T22:32:40.979Z,23.83
2023-02-27T22:35:45.358Z,19.80
2023-02-27T22:38:50.558Z,20.83
2023-02-27T22:41:56.757Z,22.02
2023-02-27T22:45:01.544Z,19.35
2023-02-27T22:48:06.556Z,17.30
2023-02-27T22:51:14.318Z,18.23
2023-02-27T22:54:20.987Z,21.17
2023-02-27T22:57:25.394Z,19.83
2023-02-27T23:00:29.694Z,17.35
2023-02-27T23:03:34.063Z,13.47
2023-02-27T23:06:40.487Z,21.35
2023-02-27T23:09:44.783Z,12.25
2023-02-27T23:12:49.213Z,14.48
2023-02-27T23:15:54.637Z,17.65
2023-02-27T23:18:59.963Z,19.42
2023-02-27T23:22:05.178Z,19.60
2023-02-27T23:25:11.724Z,21.70
2023-02-27T23:28:16.300Z,19.77
2023-02-27T23:31:20.639Z,27.13
2023-02-27T23:34:25.054Z,16.67
2023-02-27T23:37:29.315Z,21.25
2023-02-27T23:40:35.378Z,16.60
2023-02-27T23:43:58.662Z,17.10
2023-02-27T23:47:03.215Z,22.60
2023-02-27T23:50:08.498Z,15.90
2023-02-27T23:53:13.564Z,26.58
2023-02-27T23:56:22.425Z,14.48
2023-02-27T23:59:28.165Z,18.75
